createdAt,value
2023-04-02T00:01:02.320Z,9.60
2023-04-02T00:03:43.116Z,9.75
2023-04-02T00:06:34.535Z,7.95
2023-04-02T00:09:29.140Z,9.23
2023-04-02T00:11:57.294Z,9.88
2023-04-02T00:14:33.865Z,11.88
2023-04-02T00:17:05.484Z,9.27
2023-04-02T00:19:38.629Z,11.00
2023-04-02T00:22:16.230Z,11.40
2023-04-02T00:24:43.457Z,11.50
2023-04-02T00:27:15.076Z,15.00
2023-04-02T00:29:57.104Z,12.57
2023-04-02T00:32:31.479Z,12.00
2023-04-02T00:34:59.770Z,8.88
2023-04-02T00:37:39.317Z,7.65
2023-04-02T00:40:28.209Z,8.05
2023-04-02T00:42:59.623Z,9.48
2023-04-02T00:45:30.241Z,9.80
2023-04-02T00:48:00.207Z,8.25
2023-04-02T00:50:35.511Z,9.45
2023-04-02T00:53:11.966Z,8.57
2023-04-02T00:55:42.059Z,11.60
2023-04-02T00:58:38.467Z,10.20
2023-04-02T01:01:17.748Z,11.80
2023-04-02T01:04:01.655Z,12.20
2023-04-02T01:06:34.488Z,11.43
2023-04-02T01:09:32.865Z,12.02
2023-04-02T01:12:21.168Z,13.70
2023-04-02T01:15:21.691Z,11.27
2023-04-02T01:18:10.043Z,13.65
2023-04-02T01:20:43.335Z,14.15
2023-04-02T01:23:17.351Z,9.65
2023-04-02T01:26:18.121Z,10.27
2023-04-02T01:29:14.396Z,6.82
2023-04-02T01:31:42.796Z,7.35
2023-04-02T01:34:15.122Z,7.88
2023-04-02T01:36:47.919Z,9.10
2023-04-02T01:39:53.013Z,10.25
2023-04-02T01:42:32.415Z,13.27
2023-04-02T01:45:11.441Z,7.38
2023-04-02T01:47:39.824Z,9.48
2023-04-02T01:50:13.270Z,9.82
2023-04-02T01:52:43.475Z,10.52
2023-04-02T01:55:15.913Z,19.48
2023-04-02T01:57:46.262Z,11.60
2023-04-02T02:00:16.074Z,11.48
2023-04-02T02:02:51.985Z,7.95
2023-04-02T02:05:23.257Z,11.43
2023-04-02T02:07:52.925Z,10.80
2023-04-02T02:10:30.262Z,10.43
2023-04-02T02:13:00.734Z,10.80
2023-04-02T02:15:28.920Z,12.57
2023-04-02T02:18:01.313Z,11.48
2023-04-02T02:20:29.409Z,11.80
2023-04-02T02:22:58.193Z,12.70
2023-04-02T02:25:28.069Z,12.10
2023-04-02T02:28:01.420Z,9.00
2023-04-02T02:30:37.042Z,13.48
2023-04-02T02:33:07.264Z,10.60
2023-04-02T02:35:55.300Z,12.85
2023-04-02T02:38:42.345Z,9.77
2023-04-02T02:41:40.167Z,12.45
2023-04-02T02:44:10.350Z,12.52
2023-04-02T02:46:43.614Z,9.05
2023-04-02T02:49:18.409Z,13.20
2023-04-02T02:52:09.392Z,8.88
2023-04-02T02:54:53.961Z,9.80
2023-04-02T02:57:36.664Z,11.55
2023-04-02T03:00:06.715Z,9.05
2023-04-02T03:02:38.918Z,8.88
2023-04-02T03:05:08.983Z,8.82
2023-04-02T03:07:37.687Z,8.95
2023-04-02T03:10:37.001Z,10.48
2023-04-02T03:13:28.613Z,14.30
2023-04-02T03:16:18.955Z,11.98
2023-04-02T03:19:07.811Z,9.65
2023-04-02T03:21:49.735Z,9.43
2023-04-02T03:24:47.979Z,8.73
2023-04-02T03:27:40.840Z,7.82
2023-04-02T03:30:28.514Z,8.65
2023-04-02T03:33:15.451Z,9.23
2023-04-02T03:36:09.659Z,9.43
2023-04-02T03:38:52.474Z,16.55
2023-04-02T03:41:48.157Z,13.00
2023-04-02T03:44:29.133Z,13.00
2023-04-02T03:47:13.397Z,14.00
2023-04-02T03:49:52.181Z,14.80
2023-04-02T03:52:28.238Z,12.85
2023-04-02T03:55:01.016Z,14.95
2023-04-02T03:57:31.862Z,13.90
2023-04-02T04:00:17.533Z,15.63
2023-04-02T04:03:02.898Z,16.05
2023-04-02T04:05:31.698Z,12.05
2023-04-02T04:08:17.537Z,10.13
2023-04-02T04:10:45.185Z,10.15
2023-04-02T04:13:26.231Z,10.73
2023-04-02T04:16:05.741Z,15.52
2023-04-02T04:18:35.226Z,15.57
2023-04-02T04:21:16.155Z,15.40
2023-04-02T04:23:50.758Z,10.93
2023-04-02T04:26:44.791Z,11.82
2023-04-02T04:29:41.008Z,9.75
2023-04-02T04:32:50.781Z,9.15
2023-04-02T04:35:25.298Z,13.35
2023-04-02T04:38:08.015Z,9.60
2023-04-02T04:40:42.531Z,8.30
2023-04-02T04:43:25.037Z,11.32
2023-04-02T04:46:01.422Z,10.27
2023-04-02T04:48:37.746Z,10.15
2023-04-02T04:51:17.450Z,7.45
2023-04-02T04:53:51.017Z,14.90
2023-04-02T04:56:27.307Z,6.68
2023-04-02T04:59:19.493Z,6.75
2023-04-02T05:02:17.775Z,11.07
2023-04-02T05:04:52.037Z,6.45
2023-04-02T05:07:28.515Z,6.55
2023-04-02T05:10:05.305Z,8.65
2023-04-02T05:12:56.968Z,14.40
2023-04-02T05:15:42.431Z,6.55
2023-04-02T05:18:20.534Z,12.18
2023-04-02T05:20:55.053Z,8.60
2023-04-02T05:23:28.607Z,10.35
2023-04-02T05:26:18.837Z,14.98
2023-04-02T05:28:52.425Z,9.02
2023-04-02T05:31:26.464Z,10.73
2023-04-02T05:33:55.877Z,6.95
2023-04-02T05:36:29.628Z,10.18
2023-04-02T05:39:00.960Z,7.70
2023-04-02T05:41:48.533Z,16.77
2023-04-02T05:44:36.839Z,9.00
2023-04-02T05:47:21.482Z,12.40
2023-04-02T05:50:01.736Z,9.18
2023-04-02T05:52:34.706Z,16.35
2023-04-02T05:55:13.795Z,10.75
2023-04-02T05:58:13.649Z,10.73
2023-04-02T06:00:50.391Z,12.77
2023-04-02T06:03:40.233Z,7.85
2023-04-02T06:06:29.700Z,10.83
2023-04-02T06:09:08.930Z,11.27
2023-04-02T06:11:49.615Z,12.48
2023-04-02T06:14:18.861Z,8.57
2023-04-02T06:16:48.335Z,8.20
2023-04-02T06:19:22.762Z,7.72
2023-04-02T06:21:53.486Z,8.48
2023-04-02T06:24:26.019Z,11.73
2023-04-02T06:27:02.894Z,9.15
2023-04-02T06:29:41.081Z,7.80
2023-04-02T06:32:13.609Z,8.88
2023-04-02T06:34:44.424Z,8.23
2023-04-02T06:37:38.713Z,10.32
2023-04-02T06:40:26.240Z,8.77
2023-04-02T06:42:59.973Z,9.95
2023-04-02T06:45:42.461Z,8.30
2023-04-02T06:48:18.263Z,9.25
2023-04-02T06:51:07.430Z,9.25
2023-04-02T06:53:39.318Z,9.50
2023-04-02T06:56:47.838Z,11.43
2023-04-02T06:59:21.578Z,13.02
2023-04-02T07:01:57.511Z,10.77
2023-04-02T07:04:26.119Z,10.13
2023-04-02T07:06:54.409Z,10.63
2023-04-02T07:09:24.069Z,7.80
2023-04-02T07:11:55.292Z,8.93
2023-04-02T07:14:22.403Z,9.57
2023-04-02T07:16:49.712Z,9.27
2023-04-02T07:19:22.330Z,10.85
2023-04-02T07:21:53.882Z,13.30
2023-04-02T07:24:22.337Z,10.50
2023-04-02T07:26:49.536Z,10.82
2023-04-02T07:29:17.893Z,10.57
2023-04-02T07:31:45.454Z,11.77
2023-04-02T07:34:12.709Z,13.02
2023-04-02T07:36:39.890Z,12.02
2023-04-02T07:39:07.077Z,8.35
2023-04-02T07:41:34.248Z,6.45
2023-04-02T07:44:01.461Z,8.15
2023-04-02T07:46:28.970Z,7.38
2023-04-02T07:48:56.389Z,7.00
2023-04-02T07:51:26.263Z,9.00
2023-04-02T07:53:56.630Z,9.07
2023-04-02T07:56:25.269Z,6.63
2023-04-02T07:58:53.025Z,7.07
2023-04-02T08:01:24.725Z,8.15
2023-04-02T08:03:54.430Z,8.32
2023-04-02T08:06:22.927Z,9.45
2023-04-02T08:08:51.032Z,5.25
2023-04-02T08:11:18.152Z,8.13
2023-04-02T08:13:45.297Z,6.70
2023-04-02T08:16:12.639Z,7.20
2023-04-02T08:18:40.272Z,8.20
2023-04-02T08:21:09.644Z,7.22
2023-04-02T08:23:37.422Z,6.90
2023-04-02T08:26:05.981Z,8.60
2023-04-02T08:28:33.162Z,5.72
2023-04-02T08:31:00.374Z,4.15
2023-04-02T08:33:27.571Z,6.20
2023-04-02T08:35:54.901Z,6.45
2023-04-02T08:38:22.899Z,9.25
2023-04-02T08:40:53.055Z,8.25
2023-04-02T08:43:51.006Z,9.00
2023-04-02T08:46:30.934Z,5.45
2023-04-02T08:49:02.313Z,5.40
2023-04-02T08:51:34.598Z,6.22
2023-04-02T08:54:28.000Z,7.45
2023-04-02T08:57:19.670Z,7.55
2023-04-02T08:59:48.246Z,10.82
2023-04-02T09:02:36.618Z,6.57
2023-04-02T09:05:07.465Z,7.55
2023-04-02T09:07:35.331Z,7.10
2023-04-02T09:10:02.692Z,9.27
2023-04-02T09:12:32.350Z,13.30
2023-04-02T09:15:24.960Z,8.73
2023-04-02T09:18:07.127Z,11.52
2023-04-02T09:20:34.308Z,6.80
2023-04-02T09:23:01.516Z,7.22
2023-04-02T09:25:32.447Z,6.90
2023-04-02T09:28:04.228Z,6.95
2023-04-02T09:30:34.087Z,5.63
2023-04-02T09:33:09.916Z,6.00
2023-04-02T09:35:58.297Z,6.83
2023-04-02T09:38:35.592Z,8.77
2023-04-02T09:43:46.630Z,5.75
2023-04-02T09:46:13.848Z,15.90
2023-04-02T09:48:46.377Z,5.65
2023-04-02T09:51:15.715Z,5.53
2023-04-02T09:53:49.712Z,5.85
2023-04-02T09:56:23.591Z,4.22
2023-04-02T09:59:06.818Z,4.13
2023-04-02T10:01:40.261Z,3.92
2023-04-02T10:04:39.069Z,2.95
2023-04-02T10:07:07.134Z,3.22
2023-04-02T10:09:37.697Z,3.92
2023-04-02T10:12:08.208Z,5.25
2023-04-02T10:14:43.626Z,4.15
2023-04-02T10:17:41.175Z,4.32
2023-04-02T10:20:21.378Z,4.25
2023-04-02T10:22:49.273Z,4.97
2023-04-02T10:25:19.852Z,4.88
2023-04-02T10:28:24.558Z,4.25
2023-04-02T10:30:56.696Z,3.97
2023-04-02T10:33:38.133Z,2.67
2023-04-02T10:36:38.173Z,3.70
2023-04-02T10:39:31.989Z,6.03
2023-04-02T10:42:11.338Z,6.88
2023-04-02T10:45:04.891Z,6.18
2023-04-02T10:47:50.654Z,5.45
2023-04-02T10:50:28.338Z,2.97
2023-04-02T10:53:06.960Z,4.50
2023-04-02T10:55:43.255Z,8.32
2023-04-02T10:58:25.945Z,5.22
2023-04-02T11:01:00.502Z,5.35
2023-04-02T11:03:43.796Z,7.20
2023-04-02T11:06:21.480Z,6.70
2023-04-02T11:08:52.483Z,7.05
2023-04-02T11:11:27.858Z,5.05
2023-04-02T11:14:13.008Z,4.00
2023-04-02T11:16:44.041Z,4.75
2023-04-02T11:19:17.524Z,3.58
2023-04-02T11:21:58.658Z,3.75
2023-04-02T11:24:33.942Z,4.40
2023-04-02T11:27:18.779Z,3.85
2023-04-02T11:30:14.412Z,4.68
2023-04-02T11:32:49.789Z,3.42
2023-04-02T11:35:46.584Z,4.53
2023-04-02T11:38:19.814Z,5.05
2023-04-02T11:40:53.364Z,6.90
2023-04-02T11:43:38.357Z,5.57
2023-04-02T11:46:20.821Z,4.05
2023-04-02T11:48:48.042Z,3.78
2023-04-02T11:51:21.423Z,3.10
2023-04-02T11:53:58.801Z,3.10
2023-04-02T11:56:47.453Z,5.97
2023-04-02T11:59:23.528Z,3.88
2023-04-02T12:02:21.706Z,3.65
2023-04-02T12:05:04.648Z,4.80
2023-04-02T12:08:09.081Z,4.95
2023-04-02T12:10:56.960Z,5.20
2023-04-02T12:13:48.385Z,7.05
2023-04-02T12:16:17.250Z,10.98
2023-04-02T12:18:54.147Z,4.97
2023-04-02T12:21:25.766Z,3.95
2023-04-02T12:23:56.293Z,6.88
2023-04-02T12:26:38.826Z,7.10
2023-04-02T12:29:26.478Z,14.20
2023-04-02T12:31:56.032Z,6.07
2023-04-02T12:34:28.917Z,16.42
2023-04-02T12:36:59.939Z,17.10
2023-04-02T12:39:28.531Z,25.10
2023-04-02T12:41:56.417Z,5.18
2023-04-02T12:44:27.476Z,8.82
2023-04-02T12:46:55.171Z,8.82
2023-04-02T12:49:40.554Z,11.90
2023-04-02T12:52:11.861Z,12.00
2023-04-02T12:54:46.894Z,18.67
2023-04-02T12:57:40.638Z,14.07
2023-04-02T13:00:23.000Z,21.45
2023-04-02T13:03:00.766Z,16.60
2023-04-02T13:05:41.625Z,8.85
2023-04-02T13:08:31.230Z,5.53
2023-04-02T13:11:03.342Z,13.43
2023-04-02T13:13:37.993Z,10.50
2023-04-02T13:16:24.760Z,7.32
2023-04-02T13:18:52.037Z,17.55
2023-04-02T13:21:21.971Z,8.10
2023-04-02T13:23:49.065Z,11.82
2023-04-02T13:26:22.446Z,13.07
2023-04-02T13:28:57.455Z,5.38
2023-04-02T13:31:24.930Z,6.38
2023-04-02T13:33:52.350Z,7.13
2023-04-02T13:36:19.540Z,3.47
2023-04-02T13:38:46.722Z,5.85
2023-04-02T13:41:26.604Z,11.38
2023-04-02T13:43:55.960Z,5.40
2023-04-02T13:46:26.693Z,8.45
2023-04-02T13:48:55.603Z,3.97
2023-04-02T13:51:44.713Z,3.95
2023-04-02T13:54:29.802Z,4.55
2023-04-02T13:56:57.487Z,10.77
2023-04-02T13:59:26.334Z,7.75
2023-04-02T14:02:01.991Z,9.55
2023-04-02T14:04:33.673Z,13.27
2023-04-02T14:07:18.692Z,13.35
2023-04-02T14:09:53.321Z,8.27
2023-04-02T14:12:38.630Z,14.38
2023-04-02T14:15:40.904Z,11.23
2023-04-02T14:18:23.292Z,11.07
2023-04-02T14:21:21.572Z,9.80
2023-04-02T14:23:56.101Z,15.00
2023-04-02T14:26:46.694Z,12.45
2023-04-02T14:29:21.651Z,4.47
2023-04-02T14:32:06.795Z,5.07
2023-04-02T14:34:48.850Z,9.85
2023-04-02T14:37:39.866Z,18.83
2023-04-02T14:40:25.547Z,17.45
2023-04-02T14:43:04.567Z,6.35
2023-04-02T14:46:00.401Z,6.75
2023-04-02T14:48:47.827Z,4.35
2023-04-02T14:51:14.885Z,13.27
2023-04-02T14:53:51.857Z,7.88
2023-04-02T14:56:22.206Z,4.97
2023-04-02T14:58:54.691Z,6.05
2023-04-02T15:01:32.086Z,8.55
2023-04-02T15:04:09.162Z,6.10
2023-04-02T15:06:44.885Z,5.43
2023-04-02T15:09:19.372Z,4.13
2023-04-02T15:11:53.222Z,6.10
2023-04-02T15:14:39.098Z,6.22
2023-04-02T15:17:07.680Z,14.23
2023-04-02T15:19:34.801Z,5.43
2023-04-02T15:22:13.756Z,4.68
2023-04-02T15:24:55.690Z,4.38
2023-04-02T15:27:37.717Z,4.97
2023-04-02T15:30:09.280Z,4.45
2023-04-02T15:32:39.780Z,4.95
2023-04-02T15:35:47.055Z,4.40
2023-04-02T15:38:41.241Z,6.30
2023-04-02T15:41:27.812Z,8.52
2023-04-02T15:44:09.886Z,16.40
2023-04-02T15:46:56.450Z,25.65
2023-04-02T15:49:32.308Z,17.08
2023-04-02T15:52:22.425Z,5.70
2023-04-02T15:55:14.178Z,5.80
2023-04-02T15:58:02.522Z,9.35
2023-04-02T16:00:33.221Z,6.18
2023-04-02T16:03:32.837Z,4.25
2023-04-02T16:06:19.115Z,10.63
2023-04-02T16:09:08.816Z,6.20
2023-04-02T16:11:36.876Z,7.40
2023-04-02T16:14:21.083Z,22.38
2023-04-02T16:16:50.759Z,14.45
2023-04-02T16:19:35.494Z,15.18
2023-04-02T16:22:22.960Z,13.95
2023-04-02T16:24:58.349Z,9.13
2023-04-02T16:27:43.535Z,10.98
2023-04-02T16:30:51.711Z,18.60
2023-04-02T16:33:43.985Z,11.93
2023-04-02T16:36:29.574Z,10.77
2023-04-02T16:39:04.271Z,16.13
2023-04-02T16:42:07.927Z,19.48
2023-04-02T16:44:52.808Z,20.40
2023-04-02T16:47:47.603Z,23.75
2023-04-02T16:50:14.763Z,16.88
2023-04-02T16:52:52.553Z,20.25
2023-04-02T16:55:45.710Z,19.35
2023-04-02T16:58:27.673Z,18.20
2023-04-02T17:01:00.783Z,27.52
2023-04-02T17:03:46.129Z,20.75
2023-04-02T17:06:13.464Z,26.70
2023-04-02T17:08:44.379Z,38.13
2023-04-02T17:11:39.128Z,33.20
2023-04-02T17:14:21.075Z,29.40
2023-04-02T17:16:52.906Z,32.80
2023-04-02T17:19:21.815Z,24.80
2023-04-02T17:21:53.169Z,13.23
2023-04-02T17:24:41.698Z,19.70
2023-04-02T17:27:17.327Z,23.75
2023-04-02T17:29:48.497Z,20.65
2023-04-02T17:32:24.354Z,19.92
2023-04-02T17:34:51.528Z,20.95
2023-04-02T17:37:24.929Z,25.20
2023-04-02T17:40:04.759Z,19.88
2023-04-02T17:43:13.006Z,22.60
2023-04-02T17:45:40.116Z,24.23
2023-04-02T17:48:30.930Z,62.28
2023-04-02T17:51:32.430Z,90.30
2023-04-02T17:54:21.201Z,63.20
2023-04-02T17:56:57.227Z,47.03
2023-04-02T18:00:01.647Z,40.47
2023-04-02T18:02:52.567Z,22.23
2023-04-02T18:05:53.784Z,19.10
2023-04-02T18:08:56.811Z,25.30
2023-04-02T18:11:51.539Z,29.70
2023-04-02T18:14:34.507Z,23.35
2023-04-02T18:17:13.823Z,25.42
2023-04-02T18:19:58.802Z,18.63
2023-04-02T18:22:47.709Z,19.90
2023-04-02T18:25:39.864Z,23.65
2023-04-02T18:28:33.613Z,25.95
2023-04-02T18:31:19.454Z,19.05
2023-04-02T18:34:14.346Z,18.38
2023-04-02T18:36:53.199Z,11.65
2023-04-02T18:39:20.234Z,15.25
2023-04-02T18:42:19.107Z,16.80
2023-04-02T18:45:02.846Z,19.52
2023-04-02T18:47:51.304Z,14.65
2023-04-02T18:50:33.667Z,16.70
2023-04-02T18:53:13.426Z,17.50
2023-04-02T18:56:01.893Z,27.30
2023-04-02T18:58:53.349Z,18.98
2023-04-02T19:01:28.501Z,18.17
2023-04-02T19:04:03.105Z,22.77
2023-04-02T19:06:45.064Z,25.05
2023-04-02T19:09:15.549Z,30.23
2023-04-02T19:11:43.144Z,61.47
2023-04-02T19:14:15.561Z,47.22
2023-04-02T19:17:02.981Z,63.42
2023-04-02T19:19:42.423Z,29.77
2023-04-02T19:22:26.192Z,36.30
2023-04-02T19:25:13.271Z,36.08
2023-04-02T19:28:02.400Z,28.48
2023-04-02T19:30:40.140Z,26.75
2023-04-02T19:33:35.810Z,34.38
2023-04-02T19:36:33.049Z,30.45
2023-04-02T19:39:29.746Z,26.38
2023-04-02T19:42:17.713Z,13.25
2023-04-02T19:44:49.351Z,12.45
2023-04-02T19:47:21.898Z,10.30
2023-04-02T19:49:52.100Z,11.98
2023-04-02T19:52:21.696Z,8.45
2023-04-02T19:54:49.009Z,9.35
2023-04-02T19:57:17.594Z,13.10
2023-04-02T19:59:44.805Z,16.42
2023-04-02T20:02:12.075Z,8.18
2023-04-02T20:04:39.345Z,11.45
2023-04-02T20:07:06.633Z,22.77
2023-04-02T20:09:33.819Z,8.52
2023-04-02T20:12:01.406Z,11.18
2023-04-02T20:14:28.663Z,13.95
2023-04-02T20:16:56.134Z,12.38
2023-04-02T20:19:23.317Z,18.40
2023-04-02T20:21:50.525Z,15.32
2023-04-02T20:24:17.717Z,12.65
2023-04-02T20:26:44.910Z,14.60
2023-04-02T20:29:12.360Z,11.48
2023-04-02T20:31:39.704Z,15.57
2023-04-02T20:34:08.793Z,18.75
2023-04-02T20:36:36.296Z,14.13
2023-04-02T20:39:04.312Z,18.58
2023-04-02T20:41:31.553Z,21.27
2023-04-02T20:43:58.882Z,14.23
2023-04-02T20:46:26.448Z,13.40
2023-04-02T20:48:54.198Z,13.32
2023-04-02T20:51:22.125Z,14.48
2023-04-02T20:53:49.536Z,15.88
2023-04-02T20:56:18.060Z,12.50
2023-04-02T20:58:45.658Z,18.10
2023-04-02T21:01:23.319Z,12.57
2023-04-02T21:03:55.837Z,16.98
2023-04-02T21:06:25.222Z,12.77
2023-04-02T21:08:53.008Z,8.10
2023-04-02T21:11:22.750Z,14.68
2023-04-02T21:13:50.603Z,16.85
2023-04-02T21:16:28.612Z,16.40
2023-04-02T21:18:58.962Z,21.30
2023-04-02T21:21:38.152Z,23.58
2023-04-02T21:24:08.433Z,24.00
2023-04-02T21:26:39.291Z,32.35
2023-04-02T21:29:07.520Z,20.52
2023-04-02T21:31:37.880Z,19.73
2023-04-02T21:34:06.840Z,24.30
2023-04-02T21:36:36.686Z,24.73
2023-04-02T21:39:07.265Z,17.33
2023-04-02T21:41:40.213Z,15.05
2023-04-02T21:44:09.362Z,29.02
2023-04-02T21:46:39.695Z,22.17
2023-04-02T21:49:10.292Z,17.65
2023-04-02T21:51:39.162Z,20.58
2023-04-02T21:54:07.248Z,20.90
2023-04-02T21:56:39.641Z,20.83
2023-04-02T21:59:08.937Z,20.98
2023-04-02T22:01:38.740Z,14.38
2023-04-02T22:04:08.074Z,17.65
2023-04-02T22:06:42.076Z,19.00
2023-04-02T22:09:13.011Z,20.25
2023-04-02T22:11:43.760Z,18.63
2023-04-02T22:14:11.738Z,26.30
2023-04-02T22:16:40.244Z,17.13
2023-04-02T22:19:10.158Z,16.40
2023-04-02T22:21:38.622Z,18.05
2023-04-02T22:24:09.427Z,25.23
2023-04-02T22:26:37.271Z,23.05
2023-04-02T22:29:05.743Z,27.52
2023-04-02T22:31:35.258Z,24.00
2023-04-02T22:34:04.976Z,26.25
2023-04-02T22:36:32.637Z,25.50
2023-04-02T22:39:01.171Z,18.15
2023-04-02T22:41:29.752Z,27.55
2023-04-02T22:43:57.816Z,31.25
2023-04-02T22:46:26.933Z,35.20
2023-04-02T22:48:54.916Z,19.63
2023-04-02T22:51:24.333Z,22.40
2023-04-02T22:53:54.321Z,37.38
2023-04-02T22:56:25.079Z,26.58
2023-04-02T22:58:52.814Z,32.25
2023-04-02T23:01:23.903Z,50.30
2023-04-02T23:03:54.447Z,63.13
2023-04-02T23:06:22.110Z,63.17
2023-04-02T23:08:49.738Z,59.65
2023-04-02T23:11:23.301Z,59.95
2023-04-02T23:13:52.994Z,47.13
2023-04-02T23:16:20.791Z,40.40
2023-04-02T23:18:49.123Z,38.10
2023-04-02T23:21:18.007Z,28.92
2023-04-02T23:23:46.507Z,31.70
2023-04-02T23:26:38.697Z,32.30
2023-04-02T23:29:06.716Z,28.92
2023-04-02T23:31:33.984Z,41.80
2023-04-02T23:34:01.157Z,43.10
2023-04-02T23:36:33.122Z,48.50
2023-04-02T23:39:02.768Z,44.22
2023-04-02T23:41:31.081Z,39.50
2023-04-02T23:43:59.416Z,32.67
2023-04-02T23:46:26.917Z,35.72
2023-04-02T23:48:54.976Z,32.78
2023-04-02T23:51:23.254Z,34.33
2023-04-02T23:53:51.420Z,35.72
2023-04-02T23:56:19.500Z,38.67
2023-04-02T23:58:49.831Z,41.50
